Time;durP1;ratioP1;P1;durP2;ratioP2;P2;SDS_P1;SDS_P2;PMS_P1;PMS_P2;Temp;Humidity;BMP_temperature;BMP_pressure;BME280_temperature;BME280_humidity;BME280_pressure;Samples;Min_cycle;Max_cycle;Signal;HPM_P1;HPM_P2
2021/05/03 00:01:46;;;;;;;4.97;2.72;;;;;;;21.67;25.06;97909.88;5060012;28;20099;-93
2021/05/03 00:04:12;;;;;;;3.33;2.92;;;;;;;20.66;26.35;97919.91;5069369;28;20037;-93
2021/05/03 00:06:38;;;;;;;2.42;2.08;;;;;;;22.10;24.90;97904.44;5072154;28;20497;-94
2021/05/03 00:09:06;;;;;;;3.60;3.03;;;;;;;21.42;25.40;97899.06;5064053;28;20037;-94
2021/05/03 00:11:33;;;;;;;3.88;2.90;;;;;;;22.22;24.35;97910.19;5060998;28;20034;-94
2021/05/03 00:14:00;;;;;;;4.35;2.55;;;;;;;22.73;23.51;97908.94;5072489;28;20059;-94
2021/05/03 00:16:26;;;;;;;3.58;2.38;;;;;;;21.76;24.41;97913.72;5069452;28;20040;-94
2021/05/03 00:18:52;;;;;;;3.90;2.75;;;;;;;22.44;23.70;97919.81;5050767;28;20388;-94
2021/05/03 00:21:18;;;;;;;3.17;2.60;;;;;;;22.84;23.20;97920.69;5066917;28;20056;-93
2021/05/03 00:23:45;;;;;;;3.15;2.15;;;;;;;23.58;22.22;97921.97;5069655;28;20577;-94
2021/05/03 00:26:11;;;;;;;6.13;2.70;;;;;;;24.45;21.39;97931.53;5063605;28;20120;-94
2021/05/03 00:28:38;;;;;;;4.55;2.20;;;;;;;24.99;20.70;97928.91;5065870;28;20029;-93
2021/05/03 00:31:05;;;;;;;2.67;2.40;;;;;;;25.12;20.60;97930.50;5068067;28;20060;-94
2021/05/03 00:33:31;;;;;;;2.20;2.00;;;;;;;25.04;20.55;97928.34;5071554;28;20108;-94
2021/05/03 00:35:57;;;;;;;2.92;1.92;;;;;;;25.15;20.62;97921.19;5062758;28;20037;-94
2021/05/03 00:38:23;;;;;;;3.25;2.25;;;;;;;23.78;22.04;97925.50;5052259;28;20037;-94
2021/05/03 00:40:50;;;;;;;3.35;2.75;;;;;;;22.85;23.11;97927.09;5066442;28;20044;-94
2021/05/03 00:43:20;;;;;;;3.75;2.78;;;;;;;22.31;24.08;97924.44;5069106;28;20032;-94
2021/05/03 00:45:48;;;;;;;5.45;3.50;;;;;;;22.84;23.29;97920.69;5067865;28;20040;-94
2021/05/03 00:48:14;;;;;;;4.07;2.60;;;;;;;22.22;24.10;97921.38;5066200;28;20065;-94
2021/05/03 00:50:42;;;;;;;4.45;3.10;;;;;;;22.91;22.97;97923.38;5061561;28;20107;-94
2021/05/03 00:53:09;;;;;;;3.60;2.42;;;;;;;23.59;22.62;97934.78;5068165;28;20025;-95
2021/05/03 00:55:35;;;;;;;3.70;2.78;;;;;;;24.50;21.16;97937.41;5065391;28;20043;-95
2021/05/03 00:58:03;;;;;;;3.15;2.85;;;;;;;24.27;21.60;97948.03;5066336;28;20059;-94
2021/05/03 01:00:30;;;;;;;4.63;2.88;;;;;;;23.60;22.17;97933.53;5062649;28;20041;-94
2021/05/03 01:02:56;;;;;;;3.88;2.67;;;;;;;24.24;21.88;97940.47;5072446;28;20032;-96
2021/05/03 01:05:23;;;;;;;4.15;3.13;;;;;;;23.06;23.02;97943.44;5071328;28;20071;-94
2021/05/03 01:07:49;;;;;;;5.60;3.42;;;;;;;23.33;22.63;97939.31;5064960;28;20025;-94
2021/05/03 01:10:16;;;;;;;5.28;3.88;;;;;;;22.54;23.79;97949.59;5072811;28;20045;-94
2021/05/03 01:12:42;;;;;;;3.53;2.92;;;;;;;22.87;23.64;97947.06;5068595;28;20056;-94
2021/05/03 01:15:10;;;;;;;6.70;2.90;;;;;;;22.76;23.70;97946.44;5059253;28;20486;-94
2021/05/03 01:17:40;;;;;;;4.50;2.80;;;;;;;23.50;22.94;97936.59;5063105;28;20028;-96
2021/05/03 01:20:14;;;;;;;3.80;2.78;;;;;;;24.22;22.20;97946.53;5062942;28;20028;-95
2021/05/03 01:22:41;;;;;;;5.22;3.13;;;;;;;22.65;24.09;97952.25;5065596;28;20513;-95
2021/05/03 01:25:09;;;;;;;4.45;2.80;;;;;;;22.65;24.02;97957.84;5065757;28;20028;-95
2021/05/03 01:27:36;;;;;;;6.05;3.67;;;;;;;21.76;25.43;97949.25;5067231;28;20396;-95
2021/05/03 01:30:07;;;;;;;4.45;2.83;;;;;;;21.82;25.79;97947.59;5061316;28;20024;-95
2021/05/03 01:32:33;;;;;;;7.43;3.33;;;;;;;21.08;26.65;97952.16;5041680;28;20032;-95
2021/05/03 01:34:59;;;;;;;5.40;4.05;;;;;;;20.67;27.39;97952.19;5062681;28;20111;-95
2021/05/03 01:37:25;;;;;;;4.35;3.80;;;;;;;20.89;27.44;97952.75;5054565;28;20037;-95
2021/05/03 01:39:52;;;;;;;4.75;3.92;;;;;;;19.96;28.92;97960.34;5070864;28;20459;-94
2021/05/03 01:42:18;;;;;;;6.15;3.92;;;;;;;19.42;30.01;97952.72;5064944;28;20036;-93
2021/05/03 01:44:45;;;;;;;3.72;2.80;;;;;;;21.29;27.72;97954.69;5069772;28;20036;-93
2021/05/03 01:47:11;;;;;;;5.97;3.58;;;;;;;21.56;27.11;97956.75;5061992;28;20478;-94
2021/05/03 01:49:40;;;;;;;5.13;3.38;;;;;;;21.72;26.78;97957.72;5064893;28;20037;-93
2021/05/03 01:52:06;;;;;;;5.95;3.80;;;;;;;21.43;27.11;97964.09;5043486;28;20051;-94
2021/05/03 01:54:33;;;;;;;4.82;3.15;;;;;;;21.45;26.81;97947.72;5047064;28;20037;-94
2021/05/03 01:56:59;;;;;;;4.97;4.40;;;;;;;20.94;28.15;97957.06;5058230;28;20060;-94
2021/05/03 01:59:32;;;;;;;4.18;2.95;;;;;;;21.84;26.94;97953.56;5069349;28;20029;-94
2021/05/03 02:01:58;;;;;;;4.72;3.22;;;;;;;22.46;26.02;97950.16;5045607;28;20382;-94
2021/05/03 02:04:24;;;;;;;4.50;2.70;;;;;;;22.42;26.09;97949.44;5064508;28;20107;-93
2021/05/03 02:06:50;;;;;;;5.22;2.95;;;;;;;22.75;25.61;97954.06;5069781;28;20064;-94
2021/05/03 02:09:16;;;;;;;3.08;2.78;;;;;;;23.33;24.78;97956.13;5066514;28;20037;-94
2021/05/03 02:11:42;;;;;;;3.67;2.78;;;;;;;24.00;23.92;97949.03;5064706;28;20060;-94
2021/05/03 02:14:12;;;;;;;4.90;2.55;;;;;;;23.75;24.31;97954.44;5067379;28;20116;-95
2021/05/03 02:16:38;;;;;;;3.13;2.58;;;;;;;24.27;23.62;97948.78;5062505;28;20064;-94
2021/05/03 02:19:04;;;;;;;3.53;2.70;;;;;;;24.12;23.54;97947.56;5072158;28;20032;-93
2021/05/03 02:21:30;;;;;;;4.40;2.95;;;;;;;23.61;24.36;97956.75;5067239;28;20036;-94
2021/05/03 02:23:56;;;;;;;3.83;2.67;;;;;;;22.91;25.83;97968.16;5039215;28;20064;-94
2021/05/03 02:26:22;;;;;;;3.08;2.30;;;;;;;22.98;25.43;97959.63;5050245;28;20032;-95
2021/05/03 02:28:51;;;;;;;2.80;2.20;;;;;;;22.53;25.93;97962.03;5066097;28;20031;-93
2021/05/03 02:31:18;;;;;;;4.15;3.08;;;;;;;21.33;27.38;97969.38;5062739;28;20041;-93
2021/05/03 02:33:44;;;;;;;2.65;2.25;;;;;;;21.45;27.26;97964.47;5069936;28;20033;-94
2021/05/03 02:36:10;;;;;;;4.95;4.32;;;;;;;21.14;27.39;97958.09;5066771;28;20060;-94
2021/05/03 02:38:36;;;;;;;3.28;2.75;;;;;;;20.96;28.06;97975.00;5070868;28;20548;-94
2021/05/03 02:41:02;;;;;;;3.25;2.95;;;;;;;21.35;27.48;97977.38;5068087;28;20041;-94
2021/05/03 02:43:29;;;;;;;3.67;3.13;;;;;;;20.51;28.25;97990.22;5062668;28;20474;-93
2021/05/03 02:45:55;;;;;;;3.33;3.03;;;;;;;19.85;29.44;97981.13;5062101;28;20054;-93
2021/05/03 02:48:21;;;;;;;3.72;3.13;;;;;;;20.82;28.21;97991.13;5071393;28;20048;-93
2021/05/03 02:50:47;;;;;;;4.95;2.47;;;;;;;20.94;27.52;97979.41;5072814;28;20027;-94
2021/05/03 02:53:13;;;;;;;6.18;4.22;;;;;;;20.99;27.50;97982.53;5058694;28;20052;-93
2021/05/03 02:55:39;;;;;;;4.03;3.33;;;;;;;20.50;28.31;97991.41;5072446;28;20382;-93
2021/05/03 02:58:05;;;;;;;3.72;3.08;;;;;;;20.47;28.57;97992.22;5072687;28;20371;-93
2021/05/03 03:00:34;;;;;;;4.45;3.60;;;;;;;21.43;27.42;97992.00;5067203;28;20079;-94
2021/05/03 03:03:01;;;;;;;4.60;3.78;;;;;;;19.45;29.95;98007.59;5063806;28;20044;-92
2021/05/03 03:05:28;;;;;;;4.38;3.97;;;;;;;19.77;29.70;97999.88;5068694;28;20089;-92
2021/05/03 03:07:54;;;;;;;3.55;3.20;;;;;;;19.24;30.37;98007.66;5070189;28;20073;-92
2021/05/03 03:10:21;;;;;;;4.40;3.97;;;;;;;19.17;30.70;98007.69;5070267;28;20043;-93
2021/05/03 03:12:48;;;;;;;4.40;4.00;;;;;;;18.94;30.74;98013.72;5067763;28;20115;-92
2021/05/03 03:15:18;;;;;;;4.38;3.55;;;;;;;18.95;30.43;98006.94;5073393;28;20068;-91
2021/05/03 03:17:48;;;;;;;3.35;3.05;;;;;;;19.89;29.57;98027.28;5068004;28;20554;-92
2021/05/03 03:20:15;;;;;;;4.20;3.70;;;;;;;20.78;27.95;98023.81;5067269;28;20038;-93
2021/05/03 03:22:42;;;;;;;5.47;3.50;;;;;;;20.54;28.13;98022.84;5071219;28;20112;-93
2021/05/03 03:25:08;;;;;;;3.30;2.78;;;;;;;20.94;27.23;98026.84;5065189;28;20033;-93
2021/05/03 03:27:35;;;;;;;3.33;2.55;;;;;;;21.00;27.31;98039.97;5071109;28;20048;-93
2021/05/03 03:30:06;;;;;;;6.57;3.60;;;;;;;19.98;28.29;98040.75;5062540;28;20074;-92
2021/05/03 03:32:32;;;;;;;6.35;2.83;;;;;;;21.00;27.22;98042.75;5063057;28;20029;-92
2021/05/03 03:34:58;;;;;;;3.08;2.60;;;;;;;21.22;27.15;98046.13;5064533;28;20087;-94
2021/05/03 03:37:24;;;;;;;4.03;3.13;;;;;;;20.43;27.79;98045.25;5070129;28;20059;-93
2021/05/03 03:39:50;;;;;;;5.70;3.60;;;;;;;21.02;26.86;98053.50;5066206;28;20056;-92
2021/05/03 03:42:16;;;;;;;3.42;3.10;;;;;;;20.80;27.09;98055.69;5064050;28;20090;-93
2021/05/03 03:44:42;;;;;;;3.05;2.75;;;;;;;21.68;26.09;98059.56;5063724;28;20111;-94
2021/05/03 03:47:08;;;;;;;5.13;2.80;;;;;;;21.26;26.46;98053.25;5064428;28;20032;-94
2021/05/03 03:49:34;;;;;;;2.65;2.45;;;;;;;21.55;25.92;98064.09;5050281;28;20375;-92
2021/05/03 03:52:00;;;;;;;5.63;3.00;;;;;;;21.53;25.95;98055.34;5065414;28;20170;-94
2021/05/03 03:54:26;;;;;;;3.25;2.95;;;;;;;20.77;26.99;98056.50;5050207;28;20119;-93
2021/05/03 03:56:52;;;;;;;4.40;3.58;;;;;;;19.83;28.35;98062.34;5068343;28;20043;-92
2021/05/03 03:59:19;;;;;;;3.95;3.30;;;;;;;19.73;28.76;98062.38;5068563;28;20119;-94
2021/05/03 04:01:46;;;;;;;4.35;3.10;;;;;;;19.99;28.61;98078.56;5063794;28;20029;-93
2021/05/03 04:04:21;;;;;;;3.50;3.00;;;;;;;19.42;29.42;98080.78;5057758;28;20032;-94
2021/05/03 04:09:24;;;;;;;3.88;3.05;;;;;;;19.41;29.22;98086.78;5068949;28;20394;-93
2021/05/03 04:21:02;;;;;;;3.55;3.00;;;;;;;20.05;28.27;98095.66;5071808;28;20040;-94
2021/05/03 04:27:37;;;;;;;3.42;3.00;;;;;;;19.58;28.95;98092.28;5072103;28;20470;-93
2021/05/03 04:30:11;;;;;;;4.15;3.05;;;;;;;20.79;27.25;98098.75;5065112;28;20040;-94
2021/05/03 04:32:38;;;;;;;4.40;2.65;;;;;;;21.12;26.69;98102.88;5064953;28;20017;-93
2021/05/03 04:35:05;;;;;;;3.08;2.80;;;;;;;21.01;26.94;98093.75;5063583;28;20049;-93
2021/05/03 04:37:31;;;;;;;3.08;2.85;;;;;;;21.38;26.59;98098.63;5062814;28;20033;-93
2021/05/03 04:39:57;;;;;;;3.40;3.10;;;;;;;20.75;27.26;98097.22;5067693;28;20052;-92
2021/05/03 04:42:23;;;;;;;3.25;2.80;;;;;;;21.04;26.98;98107.72;5067983;28;20029;-94
2021/05/03 04:44:49;;;;;;;3.05;2.50;;;;;;;21.64;26.41;98107.09;5067417;28;20040;-92
2021/05/03 04:47:16;;;;;;;3.17;2.80;;;;;;;22.44;25.00;98106.47;5060793;28;20059;-93
2021/05/03 04:49:42;;;;;;;2.40;2.20;;;;;;;22.64;25.00;98108.16;5066919;28;20059;-93
2021/05/03 04:52:08;;;;;;;3.70;3.17;;;;;;;21.32;26.34;98121.41;5063205;28;20032;-93
2021/05/03 04:54:34;;;;;;;2.95;2.75;;;;;;;22.43;25.20;98108.47;5067085;28;20048;-93
2021/05/03 04:57:00;;;;;;;3.85;3.42;;;;;;;21.49;26.27;98110.47;5061827;28;20110;-96
2021/05/03 04:59:26;;;;;;;4.70;3.38;;;;;;;20.96;27.22;98108.97;5065234;28;20445;-95
2021/05/03 05:01:53;;;;;;;2.38;2.17;;;;;;;21.77;26.23;98108.16;5064073;28;20111;-95
2021/05/03 05:04:19;;;;;;;4.40;3.60;;;;;;;21.44;26.33;98113.72;5055407;28;20115;-94
2021/05/03 05:06:45;;;;;;;4.22;3.22;;;;;;;21.73;25.69;98101.00;5071713;28;20033;-96
2021/05/03 05:09:11;;;;;;;4.60;2.75;;;;;;;22.07;25.48;98109.38;5069608;28;20465;-95
2021/05/03 05:11:37;;;;;;;3.00;2.70;;;;;;;20.89;26.67;98108.22;5065812;28;20071;-96
2021/05/03 05:14:03;;;;;;;3.40;2.75;;;;;;;21.04;26.13;98099.38;5059522;28;20036;-96
2021/05/03 05:16:29;;;;;;;2.88;2.63;;;;;;;20.78;26.83;98113.09;5067223;28;20048;-94
2021/05/03 05:18:56;;;;;;;3.28;2.75;;;;;;;21.49;25.77;98125.25;5069445;28;20363;-96
2021/05/03 05:21:22;;;;;;;2.35;2.15;;;;;;;20.79;26.56;98120.28;5062674;28;20493;-94
2021/05/03 05:23:49;;;;;;;2.72;2.50;;;;;;;21.26;26.31;98134.22;5063107;28;20025;-95
2021/05/03 05:26:15;;;;;;;2.53;2.13;;;;;;;22.02;25.60;98130.22;5068541;28;20028;-94
2021/05/03 05:28:41;;;;;;;2.65;2.20;;;;;;;21.49;25.94;98141.19;5072122;28;20029;-93
2021/05/03 05:31:07;;;;;;;2.50;2.30;;;;;;;22.06;25.10;98133.75;5062045;28;20020;-93
2021/05/03 05:33:33;;;;;;;2.58;2.38;;;;;;;22.34;24.77;98143.75;5066193;28;20033;-94
2021/05/03 05:35:59;;;;;;;2.17;1.98;;;;;;;22.90;23.77;98134.56;5068228;28;20024;-94
2021/05/03 05:38:25;;;;;;;3.45;2.40;;;;;;;22.82;23.91;98144.28;5065822;28;20040;-95
2021/05/03 05:40:51;;;;;;;2.63;2.22;;;;;;;22.17;24.76;98136.44;5068499;28;20059;-94
2021/05/03 05:43:17;;;;;;;2.55;2.03;;;;;;;22.16;24.56;98154.41;5067850;28;20047;-94
2021/05/03 05:45:43;;;;;;;5.57;1.90;;;;;;;22.96;23.69;98151.66;5043518;28;20036;-93
2021/05/03 05:48:10;;;;;;;2.83;2.10;;;;;;;21.79;23.58;98142.06;5069655;28;20470;-93
2021/05/03 05:50:36;;;;;;;3.25;1.70;;;;;;;21.16;25.10;98153.88;5068305;28;20043;-93
2021/05/03 05:53:02;;;;;;;2.28;2.08;;;;;;;21.16;24.79;98149.09;5067665;28;20032;-92
2021/05/03 05:55:31;;;;;;;2.45;1.55;;;;;;;22.60;23.41;98152.22;5063931;28;20392;-94
2021/05/03 05:57:57;;;;;;;1.50;1.40;;;;;;;22.84;22.33;98160.66;5066212;28;20039;-92
2021/05/03 06:00:23;;;;;;;1.40;1.20;;;;;;;23.15;22.38;98148.16;5068111;28;20036;-92
2021/05/03 06:02:49;;;;;;;1.70;1.50;;;;;;;22.92;22.08;98145.34;5069268;28;20549;-92
2021/05/03 06:05:15;;;;;;;1.30;1.20;;;;;;;21.35;23.83;98150.53;5067341;28;20238;-93
2021/05/03 06:07:41;;;;;;;1.42;1.33;;;;;;;20.76;25.68;98154.59;5068416;28;20054;-93
2021/05/03 06:10:08;;;;;;;1.10;1.00;;;;;;;22.11;23.57;98158.47;5067221;28;20493;-93
2021/05/03 06:12:34;;;;;;;1.00;0.90;;;;;;;23.11;22.87;98159.41;5042848;28;20044;-93
2021/05/03 06:15:00;;;;;;;1.20;1.00;;;;;;;22.90;22.05;98161.75;5063013;28;20036;-92
2021/05/03 06:17:26;;;;;;;1.30;1.15;;;;;;;22.33;23.50;98156.97;5050304;28;20489;-92
2021/05/03 06:19:52;;;;;;;1.50;1.15;;;;;;;21.52;24.10;98168.31;5068668;28;20379;-92
2021/05/03 06:22:18;;;;;;;2.58;1.67;;;;;;;20.99;25.33;98168.75;5066692;28;20091;-92
2021/05/03 06:24:44;;;;;;;1.65;1.20;;;;;;;21.15;24.56;98175.44;5067885;28;20211;-92
2021/05/03 06:27:11;;;;;;;1.48;1.38;;;;;;;20.84;24.88;98175.66;5063051;28;20033;-93
2021/05/03 06:29:37;;;;;;;2.25;1.48;;;;;;;19.44;27.45;98181.41;5067811;28;20075;-93
2021/05/03 06:32:04;;;;;;;1.52;1.30;;;;;;;18.92;27.46;98188.59;5072931;28;20024;-95
2021/05/03 06:34:31;;;;;;;3.05;1.95;;;;;;;18.53;27.89;98185.75;5048996;28;20120;-93
2021/05/03 06:36:58;;;;;;;1.60;1.50;;;;;;;18.58;28.91;98193.72;5067320;28;20448;-94
2021/05/03 06:39:26;;;;;;;3.30;1.83;;;;;;;19.74;27.79;98189.34;5071730;28;20060;-92
2021/05/03 06:41:53;;;;;;;1.50;1.38;;;;;;;19.89;27.05;98197.25;5072623;28;20448;-92
2021/05/03 06:44:19;;;;;;;1.80;1.63;;;;;;;19.66;28.00;98202.47;5072870;28;20033;-92
2021/05/03 06:46:46;;;;;;;1.65;1.50;;;;;;;19.16;28.69;98196.13;5072457;28;20029;-92
2021/05/03 06:49:12;;;;;;;1.65;1.40;;;;;;;18.49;29.84;98204.41;5070368;28;20035;-93
2021/05/03 06:51:38;;;;;;;1.20;1.10;;;;;;;19.59;28.16;98196.13;5066183;28;20036;-91
2021/05/03 06:54:04;;;;;;;1.38;1.23;;;;;;;20.25;27.90;98205.50;5068018;28;20032;-93
2021/05/03 06:56:30;;;;;;;2.90;1.55;;;;;;;19.99;28.01;98207.56;5072981;28;20482;-94
2021/05/03 06:58:56;;;;;;;3.28;2.22;;;;;;;19.00;29.72;98225.53;5076789;28;20035;-96
2021/05/03 07:01:23;;;;;;;2.30;1.90;;;;;;;17.66;32.76;98223.09;5060203;28;20106;-96
2021/05/03 07:03:49;;;;;;;3.13;2.20;;;;;;;18.58;31.29;98213.19;5076492;28;20036;-96
2021/05/03 07:06:15;;;;;;;2.90;1.70;;;;;;;19.53;29.66;98211.66;5070201;28;20035;-96
2021/05/03 07:08:42;;;;;;;2.53;1.50;;;;;;;19.82;28.37;98202.03;5079748;28;20040;-95
2021/05/03 07:11:13;;;;;;;1.42;1.20;;;;;;;20.97;27.71;98202.66;5076822;28;20020;-96
2021/05/03 07:13:39;;;;;;;1.63;1.27;;;;;;;21.06;26.99;98214.19;5084846;28;20052;-96
2021/05/03 07:16:06;;;;;;;1.58;1.48;;;;;;;21.34;26.88;98207.56;5088966;28;20032;-96
2021/05/03 07:18:32;;;;;;;3.85;1.83;;;;;;;20.93;26.05;98218.66;5085157;28;20052;-96
2021/05/03 07:20:58;;;;;;;2.00;1.55;;;;;;;20.92;26.47;98233.81;5087139;28;20036;-96
2021/05/03 07:23:25;;;;;;;2.97;2.10;;;;;;;19.72;28.32;98234.28;5083576;28;20096;-96
2021/05/03 07:25:51;;;;;;;3.55;1.92;;;;;;;18.66;29.60;98233.47;5095624;28;20038;-96
2021/05/03 07:28:17;;;;;;;1.55;1.45;;;;;;;18.30;30.54;98248.38;5090570;28;20049;-94
2021/05/03 07:30:43;;;;;;;1.90;1.45;;;;;;;18.41;30.98;98266.69;5050805;28;20036;-95
2021/05/03 07:33:10;;;;;;;2.47;1.90;;;;;;;19.44;29.95;98255.81;5069607;28;20112;-95
2021/05/03 07:35:36;;;;;;;2.85;2.22;;;;;;;19.73;29.49;98251.81;5074511;28;20442;-95
2021/05/03 07:38:02;;;;;;;6.88;2.90;;;;;;;19.65;29.36;98266.94;5076593;28;20041;-97
2021/05/03 07:40:31;;;;;;;1.92;1.70;;;;;;;19.54;29.63;98261.38;5095225;28;20043;-96
2021/05/03 07:42:57;;;;;;;1.60;1.50;;;;;;;20.44;28.00;98269.91;5094926;28;20047;-96
2021/05/03 07:45:24;;;;;;;4.45;3.30;;;;;;;21.62;26.59;98260.41;5099284;28;20059;-96
2021/05/03 07:47:50;;;;;;;10.98;5.15;;;;;;;21.24;26.51;98281.84;5086906;28;20085;-96
2021/05/03 07:50:18;;;;;;;6.35;2.83;;;;;;;20.72;27.39;98268.22;5075195;28;20029;-96
2021/05/03 07:52:44;;;;;;;11.40;5.25;;;;;;;22.39;25.53;98272.00;5080359;28;20032;-91
2021/05/03 07:55:12;;;;;;;5.57;3.78;;;;;;;23.36;24.78;98260.66;5083582;28;20049;-96
2021/05/03 07:57:38;;;;;;;6.03;4.10;;;;;;;24.56;24.09;98268.88;5099067;28;20055;-92
2021/05/03 08:00:06;;;;;;;3.45;2.50;;;;;;;24.92;22.82;98272.56;5083602;28;20029;-93
2021/05/03 08:02:32;;;;;;;3.00;1.90;;;;;;;23.87;24.90;98272.63;5100182;28;20024;-96
2021/05/03 08:04:58;;;;;;;2.03;1.70;;;;;;;23.81;25.00;98275.13;5101315;28;20028;-84
2021/05/03 08:07:24;;;;;;;2.67;2.35;;;;;;;24.40;24.51;98274.44;5101301;28;20048;-83
2021/05/03 08:09:50;;;;;;;2.50;2.03;;;;;;;24.12;24.41;98275.00;5091209;28;20494;-96
2021/05/03 08:12:17;;;;;;;4.32;3.08;;;;;;;23.22;25.17;98277.66;5098000;28;20095;-96
2021/05/03 08:14:43;;;;;;;7.30;2.97;;;;;;;24.18;24.02;98281.69;5098126;28;20088;-96
2021/05/03 08:17:12;;;;;;;3.33;2.42;;;;;;;23.75;24.64;98290.84;5107824;28;20016;-96
2021/05/03 08:19:38;;;;;;;3.38;2.97;;;;;;;22.60;25.08;98306.13;5093433;28;20084;-94
2021/05/03 08:22:05;;;;;;;4.07;3.67;;;;;;;22.52;25.30;98304.59;5084992;28;20128;-96
2021/05/03 08:24:33;;;;;;;5.30;3.55;;;;;;;21.01;26.99;98308.69;5078241;28;20025;-95
2021/05/03 08:27:04;;;;;;;4.05;3.08;;;;;;;21.30;27.14;98298.97;5072494;28;20052;-96
2021/05/03 08:29:30;;;;;;;3.22;2.92;;;;;;;20.47;28.32;98310.16;5071468;28;20050;-95
2021/05/03 08:31:57;;;;;;;4.00;3.13;;;;;;;21.10;27.12;98312.66;5068669;28;20094;-95
2021/05/03 08:34:24;;;;;;;3.63;3.30;;;;;;;20.94;27.34;98309.53;5069442;28;20032;-93
2021/05/03 08:36:53;;;;;;;3.85;3.03;;;;;;;21.67;25.75;98323.44;5072361;28;20032;-96
2021/05/03 08:39:21;;;;;;;3.78;3.15;;;;;;;22.23;25.27;98316.53;5067402;28;20049;-94
2021/05/03 08:41:47;;;;;;;6.47;3.88;;;;;;;20.72;26.41;98318.44;5066257;28;20032;-96
2021/05/03 08:44:14;;;;;;;4.38;2.85;;;;;;;20.37;27.77;98327.75;5066806;28;20027;-93
2021/05/03 08:46:43;;;;;;;3.88;2.45;;;;;;;21.44;25.93;98317.63;5046273;28;20360;-93
2021/05/03 08:54:44;;;;;;;4.10;2.38;;;;;;;21.68;25.22;98309.03;5029611;28;20069;-96
2021/05/03 08:57:14;;;;;;;1.73;1.60;;;;;;;22.48;25.49;98323.44;5075167;28;20078;-95
2021/05/03 08:59:42;;;;;;;3.47;2.17;;;;;;;20.74;27.46;98324.41;5074761;28;20483;-94
2021/05/03 09:02:11;;;;;;;3.67;1.75;;;;;;;22.88;25.02;98320.97;5073672;28;20063;-92
2021/05/03 09:04:37;;;;;;;3.75;2.35;;;;;;;22.80;23.69;98319.50;5070127;28;20103;-90
2021/05/03 09:07:12;;;;;;;3.58;1.90;;;;;;;22.64;24.29;98318.06;5066113;28;20505;-91
2021/05/03 09:09:44;;;;;;;2.58;1.95;;;;;;;21.69;24.35;98321.00;5074211;28;20098;-92
2021/05/03 09:12:19;;;;;;;3.33;1.95;;;;;;;22.12;23.66;98325.03;5057876;28;20033;-91
2021/05/03 09:14:55;;;;;;;3.35;1.80;;;;;;;21.87;23.63;98316.88;5071124;28;20044;-90
2021/05/03 09:17:30;;;;;;;2.38;1.42;;;;;;;23.35;23.53;98325.53;5071435;28;20044;-91
2021/05/03 09:19:57;;;;;;;3.35;1.70;;;;;;;22.83;24.02;98330.63;5063805;28;20502;-91
2021/05/03 09:22:36;;;;;;;2.15;0.98;;;;;;;23.93;22.69;98321.38;5071049;28;20028;-91
2021/05/03 09:25:25;;;;;;;1.70;1.10;;;;;;;23.57;21.47;98323.97;5071618;28;20082;-91
2021/05/03 09:28:09;;;;;;;1.40;1.00;;;;;;;22.35;23.49;98347.56;5072391;28;20093;-94
2021/05/03 09:30:46;;;;;;;1.95;1.10;;;;;;;20.89;25.31;98334.28;5070551;28;20067;-94
2021/05/03 09:33:28;;;;;;;2.00;1.20;;;;;;;20.73;24.16;98320.81;5068247;28;20391;-92
2021/05/03 09:36:03;;;;;;;2.10;1.05;;;;;;;21.74;23.89;98323.38;5069241;28;20394;-92
2021/05/03 09:38:46;;;;;;;1.20;1.05;;;;;;;21.15;25.26;98326.19;5063397;28;20482;-88
2021/05/03 09:41:18;;;;;;;1.13;0.90;;;;;;;21.66;23.19;98302.25;5067395;28;20028;-90
2021/05/03 09:44:15;;;;;;;1.23;0.70;;;;;;;21.59;24.25;98347.03;5061346;28;20398;-88
2021/05/03 09:46:44;;;;;;;1.70;0.70;;;;;;;20.32;23.73;98306.66;5065824;28;20559;-88
2021/05/03 09:49:18;;;;;;;0.90;0.80;;;;;;;20.98;22.86;98326.28;5067698;28;20033;-88
2021/05/03 09:51:53;;;;;;;0.68;0.57;;;;;;;21.44;23.33;98326.00;5073112;28;20028;-86
2021/05/03 09:54:28;;;;;;;1.60;0.60;;;;;;;21.22;23.83;98325.34;5065603;28;20037;-86
2021/05/03 09:57:02;;;;;;;0.73;0.57;;;;;;;21.97;22.57;98321.59;5066416;28;20036;-85
2021/05/03 09:59:42;;;;;;;1.48;0.75;;;;;;;23.08;21.39;98313.50;5071314;28;20474;-90
2021/05/03 10:02:20;;;;;;;1.60;0.70;;;;;;;21.67;23.27;98326.22;5070402;28;20103;-91
2021/05/03 10:04:50;;;;;;;2.53;0.90;;;;;;;21.95;23.68;98340.78;5068383;28;20549;-88
2021/05/03 10:07:19;;;;;;;1.30;0.97;;;;;;;20.92;23.08;98355.81;5063300;28;20021;-88
2021/05/03 10:09:49;;;;;;;1.33;1.00;;;;;;;20.10;24.80;98349.66;5051260;28;20115;-87
2021/05/03 10:12:18;;;;;;;3.25;1.10;;;;;;;20.78;23.83;98317.59;5064695;28;20029;-88
2021/05/03 10:14:48;;;;;;;0.73;0.65;;;;;;;21.08;23.85;98344.97;5068125;28;20044;-87
2021/05/03 10:17:17;;;;;;;1.30;0.70;;;;;;;22.91;22.34;98345.34;5069733;28;20067;-87
2021/05/03 10:19:44;;;;;;;0.40;0.40;;;;;;;23.18;22.26;98335.75;5066155;28;20060;-90
2021/05/03 10:22:17;;;;;;;1.02;0.63;;;;;;;23.47;20.04;98327.75;5046089;28;20029;-90
2021/05/03 10:24:46;;;;;;;2.13;0.70;;;;;;;23.76;20.64;98334.47;5065046;28;20071;-91
2021/05/03 10:27:12;;;;;;;1.00;0.60;;;;;;;23.44;21.10;98328.59;5045622;28;20470;-92
2021/05/03 10:29:41;;;;;;;2.22;0.73;;;;;;;22.42;20.25;98346.69;5064725;28;20020;-90
2021/05/03 10:32:22;;;;;;;3.13;0.75;;;;;;;21.80;21.34;98318.91;5067920;28;20039;-91
2021/05/03 10:34:50;;;;;;;1.23;0.60;;;;;;;21.84;21.86;98350.47;5063935;28;20037;-85
2021/05/03 10:37:32;;;;;;;1.08;0.60;;;;;;;21.90;20.69;98346.81;5068008;28;20025;-86
2021/05/03 10:40:24;;;;;;;1.27;0.82;;;;;;;21.75;22.13;98339.72;5065119;28;20549;-84
2021/05/03 10:43:02;;;;;;;1.70;1.02;;;;;;;22.74;21.96;98346.34;5067579;28;20028;-88
2021/05/03 10:46:13;;;;;;;1.67;0.80;;;;;;;22.80;20.45;98348.25;5058345;28;20040;-87
2021/05/03 10:48:50;;;;;;;3.22;0.85;;;;;;;22.23;22.90;98369.66;5068663;28;20503;-95
2021/05/03 10:51:31;;;;;;;2.30;0.82;;;;;;;21.75;21.19;98350.13;5066368;28;20544;-94
2021/05/03 10:54:17;;;;;;;0.90;0.80;;;;;;;21.69;22.42;98360.13;5065148;28;20028;-93
2021/05/03 10:56:43;;;;;;;0.60;0.60;;;;;;;22.25;20.44;98348.47;5070693;28;20071;-96
2021/05/03 10:59:11;;;;;;;1.95;0.98;;;;;;;21.85;21.50;98352.03;5069768;28;20045;-95
2021/05/03 11:01:55;;;;;;;1.13;0.70;;;;;;;21.67;19.75;98345.78;5063328;28;20033;-95
2021/05/03 11:04:25;;;;;;;3.40;0.95;;;;;;;22.16;20.22;98345.38;5066828;28;20120;-96
2021/05/03 11:06:51;;;;;;;0.88;0.63;;;;;;;22.82;19.77;98351.47;5065021;28;20494;-96
2021/05/03 11:09:34;;;;;;;1.40;0.68;;;;;;;23.60;19.21;98344.75;5062080;28;20499;-96
2021/05/03 11:12:12;;;;;;;2.40;0.63;;;;;;;23.02;20.56;98360.00;5079397;28;20115;-95
2021/05/03 11:15:11;;;;;;;0.60;0.50;;;;;;;24.05;19.73;98334.78;5071775;28;20070;-94
2021/05/03 11:17:38;;;;;;;1.35;0.65;;;;;;;24.07;18.58;98334.38;5076041;28;20044;-96
2021/05/03 11:22:46;;;;;;;1.37;0.60;;;;;;;24.25;19.03;98330.03;5082713;28;20040;-96
2021/05/03 11:25:21;;;;;;;0.50;0.50;;;;;;;24.18;17.91;98329.41;5074590;28;20032;-96
2021/05/03 11:30:35;;;;;;;0.60;0.60;;;;;;;24.64;18.46;98332.88;5071519;28;20033;-93
2021/05/03 11:33:12;;;;;;;1.60;0.70;;;;;;;25.34;17.79;98332.63;5049061;28;20029;-92
2021/05/03 11:38:16;;;;;;;1.00;0.90;;;;;;;25.27;17.35;98358.88;5071102;28;20539;-93
2021/05/03 11:43:51;;;;;;;1.40;0.60;;;;;;;23.76;18.27;98356.09;5073378;28;20056;-96
2021/05/03 11:46:32;;;;;;;0.50;0.50;;;;;;;25.22;17.85;98338.91;5070841;28;20043;-94
2021/05/03 11:49:10;;;;;;;1.15;0.55;;;;;;;25.36;16.91;98341.41;5038453;28;20033;-93
2021/05/03 11:52:02;;;;;;;0.82;0.35;;;;;;;25.33;15.93;98339.47;5070402;28;20033;-96
2021/05/03 11:54:28;;;;;;;2.35;0.40;;;;;;;26.22;16.62;98350.16;5063825;28;20522;-93
2021/05/03 11:57:07;;;;;;;1.95;0.57;;;;;;;26.26;16.67;98358.50;5076104;28;20493;-94
2021/05/03 11:59:34;;;;;;;1.17;0.60;;;;;;;24.65;17.81;98364.56;5075283;28;20020;-88
2021/05/03 12:02:02;;;;;;;2.60;0.90;;;;;;;22.56;20.13;98377.31;5069779;28;20028;-87
2021/05/03 12:04:32;;;;;;;3.38;0.98;;;;;;;20.81;22.26;98394.94;5073824;28;20032;-89
2021/05/03 12:06:58;;;;;;;2.72;0.90;;;;;;;20.60;23.83;98404.19;5072086;28;20082;-89
2021/05/03 12:09:25;;;;;;;2.25;1.00;;;;;;;19.68;24.78;98394.25;5071713;28;20032;-95
2021/05/03 12:11:56;;;;;;;3.17;1.38;;;;;;;19.88;25.54;98412.97;5055560;28;20028;-89
2021/05/03 12:14:40;;;;;;;2.50;1.20;;;;;;;20.06;25.86;98420.56;5068662;28;20036;-92